Associate3 — 2JKN9 — position and weather

sailwx.info

Track history (hours):
 
Tides and Currents Weather Stations Pressure Air Temp Water Temp Dewpoint Dewpoint Depression Visibility Wind Speed Wind Dir Waves Ship Positions

Associate3

Last reported at 2017-Aug-21 08:43 UTC. Time now 2017-Sep-20 01:57 UTC.
Position N 28°58' W 013°32'.
Warning: this ship's position is 29 days out of date.

Type: Pleasure craft. MMSI: 235116837.

Date/timePositionNaut miles runAvg speedWind from/ knotsBaromVisibWave heightAir tempDewpointWater temp
2017-Aug-21 08:43N 28°58' W 013°32'0 0.0
2017-Aug-20 09:22N 28°58' W 013°32'0 0.0
2017-Aug-20 08:58N 28°58' W 013°32'0 0.0
2017-Aug-20 08:28N 28°58' W 013°32'0 0.0
2017-Aug-20 07:52N 28°58' W 013°32'0 0.0
2017-Aug-20 07:19N 28°58' W 013°32'0 0.0
2017-Aug-20 06:58N 28°58' W 013°32'0 0.0
2017-Aug-20 06:28N 28°58' W 013°32'0 0.0
2017-Aug-20 05:58N 28°58' W 013°32'0 0.0
2017-Aug-20 05:28N 28°58' W 013°32'0 0.0
2017-Aug-20 04:58N 28°58' W 013°32'0 0.0
2017-Aug-20 04:28N 28°58' W 013°32'0 0.0
2017-Aug-20 03:58N 28°58' W 013°32'0 0.0
2017-Aug-20 03:25N 28°58' W 013°32'0 0.0
2017-Aug-20 02:58N 28°58' W 013°32'0 0.0
2017-Aug-20 02:28N 28°58' W 013°32'0 0.0
2017-Aug-20 01:55N 28°58' W 013°32'0 0.0
2017-Aug-20 01:22N 28°58' W 013°32'0 0.0
2017-Aug-20 00:58N 28°58' W 013°32'0 0.0
2017-Aug-20 00:28N 28°58' W 013°32'0 0.0
2017-Aug-19 23:58N 28°58' W 013°32'0 0.0
2017-Aug-19 23:28N 28°58' W 013°32'0 0.0
2017-Aug-19 22:58N 28°58' W 013°32'0 0.0
2017-Aug-19 22:28N 28°58' W 013°32'0 0.0
2017-Aug-19 21:58N 28°58' W 013°32'0 0.0
2017-Aug-19 20:58N 28°58' W 013°32'0 0.0
2017-Aug-19 20:28N 28°58' W 013°32'0 0.0
2017-Aug-19 19:58N 28°58' W 013°32'0 0.0
2017-Aug-19 19:28N 28°58' W 013°32'0 0.0
2017-Aug-19 18:58N 28°58' W 013°32'0 0.0
2017-Aug-19 18:22N 28°58' W 013°32'0 0.0
2017-Aug-19 17:58N 28°58' W 013°32'0 0.0
2017-Aug-19 17:16N 28°58' W 013°32'0 0.0
2017-Aug-19 16:58N 28°58' W 013°32'0 0.0
2017-Aug-19 16:28N 28°58' W 013°32'0 0.0
2017-Aug-19 15:44N 28°58' W 013°32'0 0.0
2017-Aug-19 15:26N 28°58' W 013°32'0 0.0
2017-Aug-19 15:00N 28°58' W 013°32'5 5.3
2017-Aug-19 14:00N 29°01' W 013°27'  
2017-Aug-16 08:31N 36°60' W 008°43'2 7.4
2017-Aug-16 08:14N 37°01' W 008°42'3 7.6
2017-Aug-16 07:54N 37°04' W 008°41'2 5.7
2017-Aug-16 07:29N 37°06' W 008°40'  
Track history (hours):
 
Tides and Currents Weather Stations Pressure Air Temp Water Temp Dewpoint Dewpoint Depression Visibility Wind Speed Wind Dir Waves Ship Positions

Associate3

Last reported at 2017-Aug-21 08:43 UTC. Time now 2017-Sep-20 01:57 UTC.
Position N 28°58' W 013°32'.
Warning: this ship's position is 29 days out of date.

Type: Pleasure craft. MMSI: 235116837.

Date/timePositionNaut miles runAvg speedWind from/ knotsBaromVisibWave heightAir tempDewpointWater temp
2017-Aug-21 08:43N 28°58' W 013°32'0 0.0
2017-Aug-20 09:22N 28°58' W 013°32'0 0.0
2017-Aug-20 08:58N 28°58' W 013°32'0 0.0
2017-Aug-20 08:28N 28°58' W 013°32'0 0.0
2017-Aug-20 07:52N 28°58' W 013°32'0 0.0
2017-Aug-20 07:19N 28°58' W 013°32'0 0.0
2017-Aug-20 06:58N 28°58' W 013°32'0 0.0
2017-Aug-20 06:28N 28°58' W 013°32'0 0.0
2017-Aug-20 05:58N 28°58' W 013°32'0 0.0
2017-Aug-20 05:28N 28°58' W 013°32'0 0.0
2017-Aug-20 04:58N 28°58' W 013°32'0 0.0
2017-Aug-20 04:28N 28°58' W 013°32'0 0.0
2017-Aug-20 03:58N 28°58' W 013°32'0 0.0
2017-Aug-20 03:25N 28°58' W 013°32'0 0.0
2017-Aug-20 02:58N 28°58' W 013°32'0 0.0
2017-Aug-20 02:28N 28°58' W 013°32'0 0.0
2017-Aug-20 01:55N 28°58' W 013°32'0 0.0
2017-Aug-20 01:22N 28°58' W 013°32'0 0.0
2017-Aug-20 00:58N 28°58' W 013°32'0 0.0
2017-Aug-20 00:28N 28°58' W 013°32'0 0.0
2017-Aug-19 23:58N 28°58' W 013°32'0 0.0
2017-Aug-19 23:28N 28°58' W 013°32'0 0.0
2017-Aug-19 22:58N 28°58' W 013°32'0 0.0
2017-Aug-19 22:28N 28°58' W 013°32'0 0.0
2017-Aug-19 21:58N 28°58' W 013°32'0 0.0
2017-Aug-19 20:58N 28°58' W 013°32'0 0.0
2017-Aug-19 20:28N 28°58' W 013°32'0 0.0
2017-Aug-19 19:58N 28°58' W 013°32'0 0.0
2017-Aug-19 19:28N 28°58' W 013°32'0 0.0
2017-Aug-19 18:58N 28°58' W 013°32'0 0.0
2017-Aug-19 18:22N 28°58' W 013°32'0 0.0
2017-Aug-19 17:58N 28°58' W 013°32'0 0.0
2017-Aug-19 17:16N 28°58' W 013°32'0 0.0
2017-Aug-19 16:58N 28°58' W 013°32'0 0.0
2017-Aug-19 16:28N 28°58' W 013°32'0 0.0
2017-Aug-19 15:44N 28°58' W 013°32'0 0.0
2017-Aug-19 15:26N 28°58' W 013°32'0 0.0
2017-Aug-19 15:00N 28°58' W 013°32'5 5.3
2017-Aug-19 14:00N 29°01' W 013°27'  
2017-Aug-16 08:31N 36°60' W 008°43'2 7.4
2017-Aug-16 08:14N 37°01' W 008°42'3 7.6
2017-Aug-16 07:54N 37°04' W 008°41'2 5.7
2017-Aug-16 07:29N 37°06' W 008°40'  

Dump ship's entire track history